sensor_id;sensor_type;location;lat;lon;timestamp;pressure;altitude;pressure_sealevel;temperature;humidity
68994;BME280;56054;50.968;5.816;2023-03-11T01:49:09;100007.97;;;0.77;100.00
68994;BME280;56054;50.968;5.816;2023-03-11T10:35:57;100348.13;;;4.16;73.35
68994;BME280;56054;50.968;5.816;2023-03-11T10:38:46;100335.88;;;4.23;71.21
68994;BME280;56054;50.968;5.816;2023-03-11T10:42:04;100338.38;;;4.01;72.15
68994;BME280;56054;50.968;5.816;2023-03-11T10:45:20;100343.13;;;4.17;75.24
68994;BME280;56054;50.968;5.816;2023-03-11T10:48:28;100342.75;;;4.02;71.75
68994;BME280;56054;50.968;5.816;2023-03-11T10:52:02;100348.84;;;4.35;71.04
68994;BME280;56054;50.968;5.816;2023-03-11T11:00:27;100359.44;;;4.18;68.66
68994;BME280;56054;50.968;5.816;2023-03-11T11:08:18;100375.50;;;4.25;72.40
68994;BME280;56054;50.968;5.816;2023-03-11T11:15:36;100354.00;;;4.67;70.76
68994;BME280;56054;50.968;5.816;2023-03-11T11:19:13;100357.47;;;4.68;69.13
68994;BME280;56054;50.968;5.816;2023-03-11T11:22:21;100353.81;;;4.54;67.59
68994;BME280;56054;50.968;5.816;2023-03-11T11:25:37;100357.38;;;4.66;69.36
68994;BME280;56054;50.968;5.816;2023-03-11T11:29:05;100365.69;;;4.42;63.69
68994;BME280;56054;50.968;5.816;2023-03-11T11:32:24;100353.72;;;4.42;68.41
68994;BME280;56054;50.968;5.816;2023-03-11T11:35:30;100357.63;;;4.69;70.43
68994;BME280;56054;50.968;5.816;2023-03-11T11:38:39;100356.03;;;4.82;70.80
68994;BME280;56054;50.968;5.816;2023-03-11T11:41:54;100360.44;;;4.72;69.61
68994;BME280;56054;50.968;5.816;2023-03-11T11:45:17;100357.97;;;4.74;71.39
68994;BME280;56054;50.968;5.816;2023-03-11T11:48:38;100349.88;;;5.02;72.21
68994;BME280;56054;50.968;5.816;2023-03-11T11:52:11;100344.31;;;5.07;72.80
68994;BME280;56054;50.968;5.816;2023-03-11T11:55:21;100338.97;;;4.94;71.01
68994;BME280;56054;50.968;5.816;2023-03-11T11:58:30;100336.34;;;5.04;72.00
68994;BME280;56054;50.968;5.816;2023-03-11T12:05:12;100346.22;;;5.32;72.49
68994;BME280;56054;50.968;5.816;2023-03-11T12:08:33;100346.03;;;5.41;72.71
68994;BME280;56054;50.968;5.816;2023-03-11T12:12:39;100335.28;;;5.12;67.15
68994;BME280;56054;50.968;5.816;2023-03-11T12:15:30;100332.44;;;5.31;69.49
68994;BME280;56054;50.968;5.816;2023-03-11T12:22:38;100330.16;;;5.46;68.46
68994;BME280;56054;50.968;5.816;2023-03-11T12:25:57;100336.38;;;5.38;66.39
68994;BME280;56054;50.968;5.816;2023-03-11T12:29:31;100336.47;;;5.28;65.19
68994;BME280;56054;50.968;5.816;2023-03-11T12:32:43;100344.59;;;5.90;68.25
68994;BME280;56054;50.968;5.816;2023-03-11T12:35:57;100341.91;;;5.76;70.27
68994;BME280;56054;50.968;5.816;2023-03-11T12:39:07;100345.94;;;5.85;70.54
68994;BME280;56054;50.968;5.816;2023-03-11T12:42:37;100327.09;;;5.74;69.91
68994;BME280;56054;50.968;5.816;2023-03-11T12:45:49;100343.19;;;5.60;65.48
68994;BME280;56054;50.968;5.816;2023-03-11T12:49:12;100342.47;;;5.50;65.65
68994;BME280;56054;50.968;5.816;2023-03-11T12:52:24;100340.84;;;5.63;64.27
68994;BME280;56054;50.968;5.816;2023-03-11T12:56:04;100325.09;;;5.82;65.65
68994;BME280;56054;50.968;5.816;2023-03-11T13:04:27;100329.19;;;6.02;66.70
68994;BME280;56054;50.968;5.816;2023-03-11T13:11:44;100321.31;;;5.88;62.08
68994;BME280;56054;50.968;5.816;2023-03-11T13:29:05;100301.84;;;6.27;67.19
68994;BME280;56054;50.968;5.816;2023-03-11T13:43:04;100305.66;;;6.32;59.17
68994;BME280;56054;50.968;5.816;2023-03-11T13:46:34;100311.47;;;6.53;57.50
68994;BME280;56054;50.968;5.816;2023-03-11T13:50:27;100305.94;;;6.72;60.93
68994;BME280;56054;50.968;5.816;2023-03-11T13:53:55;100298.00;;;6.57;57.62
68994;BME280;56054;50.968;5.816;2023-03-11T13:57:03;100305.94;;;6.72;61.63
68994;BME280;56054;50.968;5.816;2023-03-11T14:00:17;100311.94;;;6.59;57.58
68994;BME280;56054;50.968;5.816;2023-03-11T14:03:27;100303.50;;;6.50;57.38
68994;BME280;56054;50.968;5.816;2023-03-11T14:06:34;100318.50;;;6.79;54.45
68994;BME280;56054;50.968;5.816;2023-03-11T14:09:45;100317.50;;;6.77;55.47
68994;BME280;56054;50.968;5.816;2023-03-11T14:13:16;100318.44;;;6.54;54.72
68994;BME280;56054;50.968;5.816;2023-03-11T14:16:35;100320.78;;;6.63;56.55
68994;BME280;56054;50.968;5.816;2023-03-11T14:20:09;100327.56;;;6.98;56.40
68994;BME280;56054;50.968;5.816;2023-03-11T14:23:18;100321.22;;;6.69;55.79
68994;BME280;56054;50.968;5.816;2023-03-11T14:26:31;100322.59;;;6.64;53.65
68994;BME280;56054;50.968;5.816;2023-03-11T14:29:40;100320.41;;;6.82;54.31
68994;BME280;56054;50.968;5.816;2023-03-11T14:33:21;100307.84;;;6.75;55.69
68994;BME280;56054;50.968;5.816;2023-03-11T14:36:31;100312.31;;;6.89;56.91
68994;BME280;56054;50.968;5.816;2023-03-11T14:39:50;100324.38;;;6.65;55.22
68994;BME280;56054;50.968;5.816;2023-03-11T14:43:00;100328.63;;;6.76;56.06
68994;BME280;56054;50.968;5.816;2023-03-11T14:46:14;100329.19;;;6.72;56.72
68994;BME280;56054;50.968;5.816;2023-03-11T14:49:24;100334.56;;;6.75;56.37
68994;BME280;56054;50.968;5.816;2023-03-11T14:52:40;100340.19;;;6.81;57.64
68994;BME280;56054;50.968;5.816;2023-03-11T14:55:58;100330.53;;;6.67;54.94
68994;BME280;56054;50.968;5.816;2023-03-11T14:59:21;100332.31;;;6.68;55.26
68994;BME280;56054;50.968;5.816;2023-03-11T15:09:01;100332.31;;;6.68;55.98
68994;BME280;56054;50.968;5.816;2023-03-11T15:12:33;100325.38;;;6.55;57.16
68994;BME280;56054;50.968;5.816;2023-03-11T15:15:41;100331.91;;;6.62;59.33
68994;BME280;56054;50.968;5.816;2023-03-11T15:18:48;100326.50;;;6.71;57.11
68994;BME280;56054;50.968;5.816;2023-03-11T15:25:32;100332.56;;;6.48;59.16
68994;BME280;56054;50.968;5.816;2023-03-11T15:28:40;100329.66;;;6.55;60.58
68994;BME280;56054;50.968;5.816;2023-03-11T15:31:49;100325.50;;;6.57;60.69
68994;BME280;56054;50.968;5.816;2023-03-11T15:38:20;100322.38;;;6.61;61.09
68994;BME280;56054;50.968;5.816;2023-03-11T15:41:28;100329.53;;;6.77;58.79
68994;BME280;56054;50.968;5.816;2023-03-11T15:48:11;100315.06;;;6.67;59.06
68994;BME280;56054;50.968;5.816;2023-03-11T15:51:19;100328.72;;;6.78;59.26
68994;BME280;56054;50.968;5.816;2023-03-11T15:54:27;100324.69;;;6.81;56.57
68994;BME280;56054;50.968;5.816;2023-03-11T15:57:34;100328.28;;;6.83;58.68
68994;BME280;56054;50.968;5.816;2023-03-11T16:00:54;100323.47;;;6.64;57.81
68994;BME280;56054;50.968;5.816;2023-03-11T16:04:02;100334.34;;;6.60;60.23
68994;BME280;56054;50.968;5.816;2023-03-11T16:07:09;100336.38;;;6.64;59.79
68994;BME280;56054;50.968;5.816;2023-03-11T16:10:21;100335.63;;;6.54;58.22
68994;BME280;56054;50.968;5.816;2023-03-11T16:13:29;100326.53;;;6.35;58.61
68994;BME280;56054;50.968;5.816;2023-03-11T16:16:36;100340.31;;;6.59;59.72
68994;BME280;56054;50.968;5.816;2023-03-11T16:19:46;100331.22;;;6.53;58.12
68994;BME280;56054;50.968;5.816;2023-03-11T16:22:55;100335.72;;;6.43;56.79
68994;BME280;56054;50.968;5.816;2023-03-11T16:26:04;100337.41;;;6.31;57.72
68994;BME280;56054;50.968;5.816;2023-03-11T16:29:12;100333.03;;;6.18;59.04
68994;BME280;56054;50.968;5.816;2023-03-11T16:32:19;100329.22;;;6.25;60.34
68994;BME280;56054;50.968;5.816;2023-03-11T16:35:26;100327.88;;;6.42;61.76
68994;BME280;56054;50.968;5.816;2023-03-11T16:38:45;100332.03;;;6.28;57.56
68994;BME280;56054;50.968;5.816;2023-03-11T16:41:53;100322.50;;;6.15;58.44
68994;BME280;56054;50.968;5.816;2023-03-11T16:45:00;100331.13;;;6.16;59.63
68994;BME280;56054;50.968;5.816;2023-03-11T16:48:07;100333.81;;;6.06;59.27
68994;BME280;56054;50.968;5.816;2023-03-11T16:51:14;100331.78;;;6.02;59.00
68994;BME280;56054;50.968;5.816;2023-03-11T16:54:21;100328.53;;;6.16;66.88
68994;BME280;56054;50.968;5.816;2023-03-11T16:57:28;100337.41;;;6.08;60.07
68994;BME280;56054;50.968;5.816;2023-03-11T17:00:35;100340.41;;;6.02;61.18
68994;BME280;56054;50.968;5.816;2023-03-11T17:03:49;100340.41;;;6.02;61.61
68994;BME280;56054;50.968;5.816;2023-03-11T17:06:56;100327.94;;;5.96;64.05
68994;BME280;56054;50.968;5.816;2023-03-11T17:10:04;100336.53;;;5.85;61.44
68994;BME280;56054;50.968;5.816;2023-03-11T17:13:39;100335.22;;;5.56;61.54
68994;BME280;56054;50.968;5.816;2023-03-11T17:16:46;100332.16;;;5.84;66.56
68994;BME280;56054;50.968;5.816;2023-03-11T17:19:54;100328.69;;;5.84;67.57
68994;BME280;56054;50.968;5.816;2023-03-11T17:23:01;100330.09;;;5.56;62.86
68994;BME280;56054;50.968;5.816;2023-03-11T17:26:10;100334.09;;;5.53;64.48
68994;BME280;56054;50.968;5.816;2023-03-11T17:29:18;100339.38;;;5.54;65.54
68994;BME280;56054;50.968;5.816;2023-03-11T17:32:27;100337.56;;;5.53;64.40
68994;BME280;56054;50.968;5.816;2023-03-11T17:35:34;100329.75;;;5.64;66.25
68994;BME280;56054;50.968;5.816;2023-03-11T17:38:42;100336.16;;;5.69;71.02
68994;BME280;56054;50.968;5.816;2023-03-11T17:42:24;100328.84;;;5.63;70.26
68994;BME280;56054;50.968;5.816;2023-03-11T17:46:14;100344.78;;;5.69;75.55
68994;BME280;56054;50.968;5.816;2023-03-11T17:53:31;100348.78;;;5.54;69.15
68994;BME280;56054;50.968;5.816;2023-03-11T17:57:21;100345.78;;;5.60;73.91
68994;BME280;56054;50.968;5.816;2023-03-11T18:00:28;100353.97;;;5.44;71.23
68994;BME280;56054;50.968;5.816;2023-03-11T18:03:35;100365.81;;;5.52;74.22
68994;BME280;56054;50.968;5.816;2023-03-11T18:06:42;100359.69;;;5.40;72.84
68994;BME280;56054;50.968;5.816;2023-03-11T18:10:14;100370.72;;;5.49;80.22
68994;BME280;56054;50.968;5.816;2023-03-11T18:13:25;100366.84;;;5.32;77.76
68994;BME280;56054;50.968;5.816;2023-03-11T18:16:33;100373.97;;;5.24;72.14
68994;BME280;56054;50.968;5.816;2023-03-11T18:19:44;100372.38;;;5.26;75.29
68994;BME280;56054;50.968;5.816;2023-03-11T18:22:55;100370.31;;;5.10;72.21
68994;BME280;56054;50.968;5.816;2023-03-11T18:26:04;100370.06;;;5.07;71.95
68994;BME280;56054;50.968;5.816;2023-03-11T18:29:14;100370.78;;;5.17;77.69
68994;BME280;56054;50.968;5.816;2023-03-11T18:32:23;100375.75;;;5.03;74.84
68994;BME280;56054;50.968;5.816;2023-03-11T18:35:35;100375.19;;;4.85;69.54
68994;BME280;56054;50.968;5.816;2023-03-11T18:38:42;100380.66;;;5.00;76.10
68994;BME280;56054;50.968;5.816;2023-03-11T18:41:49;100373.41;;;5.06;80.39
68994;BME280;56054;50.968;5.816;2023-03-11T18:44:56;100376.78;;;5.05;82.64
68994;BME280;56054;50.968;5.816;2023-03-11T18:48:09;100376.03;;;4.96;82.57
68994;BME280;56054;50.968;5.816;2023-03-11T18:51:16;100381.44;;;4.99;85.17
68994;BME280;56054;50.968;5.816;2023-03-11T18:54:23;100391.25;;;4.93;85.36
68994;BME280;56054;50.968;5.816;2023-03-11T18:57:36;100392.94;;;4.82;85.35
68994;BME280;56054;50.968;5.816;2023-03-11T19:00:44;100388.47;;;4.80;85.76
68994;BME280;56054;50.968;5.816;2023-03-11T19:04:02;100390.69;;;4.65;85.46
68994;BME280;56054;50.968;5.816;2023-03-11T19:07:34;100391.50;;;4.64;86.61
68994;BME280;56054;50.968;5.816;2023-03-11T19:11:20;100397.94;;;4.59;85.81
68994;BME280;56054;50.968;5.816;2023-03-11T19:14:53;100402.81;;;4.56;87.39
68994;BME280;56054;50.968;5.816;2023-03-11T19:18:00;100404.38;;;4.54;89.95
68994;BME280;56054;50.968;5.816;2023-03-11T19:21:09;100394.22;;;4.45;90.11
68994;BME280;56054;50.968;5.816;2023-03-11T19:24:16;100402.09;;;4.46;89.94
68994;BME280;56054;50.968;5.816;2023-03-11T19:27:23;100396.19;;;4.37;89.78
68994;BME280;56054;50.968;5.816;2023-03-11T19:30:30;100402.22;;;4.38;90.39
68994;BME280;56054;50.968;5.816;2023-03-11T19:33:38;100401.97;;;4.35;89.60
68994;BME280;56054;50.968;5.816;2023-03-11T19:36:45;100406.09;;;4.33;88.96
68994;BME280;56054;50.968;5.816;2023-03-11T19:39:52;100409.16;;;4.28;90.35
68994;BME280;56054;50.968;5.816;2023-03-11T19:43:04;100414.84;;;4.35;91.20
68994;BME280;56054;50.968;5.816;2023-03-11T19:46:17;100399.13;;;4.32;90.23
68994;BME280;56054;50.968;5.816;2023-03-11T19:49:25;100400.41;;;4.26;88.73
68994;BME280;56054;50.968;5.816;2023-03-11T19:52:32;100400.06;;;4.22;89.83
68994;BME280;56054;50.968;5.816;2023-03-11T19:55:46;100397.75;;;4.15;89.74
68994;BME280;56054;50.968;5.816;2023-03-11T19:58:55;100414.09;;;4.15;90.97
68994;BME280;56054;50.968;5.816;2023-03-11T20:02:04;100409.19;;;4.18;89.74
68994;BME280;56054;50.968;5.816;2023-03-11T20:05:21;100408.16;;;4.06;87.33
68994;BME280;56054;50.968;5.816;2023-03-11T20:08:29;100407.53;;;4.08;88.71
68994;BME280;56054;50.968;5.816;2023-03-11T20:11:38;100404.72;;;4.05;90.77
68994;BME280;56054;50.968;5.816;2023-03-11T20:14:45;100396.59;;;3.70;84.04
68994;BME280;56054;50.968;5.816;2023-03-11T20:17:52;100407.91;;;3.62;82.04
68994;BME280;56054;50.968;5.816;2023-03-11T20:21:03;100415.59;;;3.62;81.67
68994;BME280;56054;50.968;5.816;2023-03-11T20:24:11;100411.50;;;3.64;82.59
68994;BME280;56054;50.968;5.816;2023-03-11T20:27:18;100422.28;;;3.60;81.75
68994;BME280;56054;50.968;5.816;2023-03-11T20:30:25;100414.78;;;3.42;81.19
68994;BME280;56054;50.968;5.816;2023-03-11T20:33:33;100406.06;;;3.40;80.34
68994;BME280;56054;50.968;5.816;2023-03-11T20:36:44;100397.78;;;3.24;79.67
68994;BME280;56054;50.968;5.816;2023-03-11T20:39:51;100403.84;;;3.25;79.07
68994;BME280;56054;50.968;5.816;2023-03-11T20:42:58;100401.13;;;3.23;80.35
68994;BME280;56054;50.968;5.816;2023-03-11T20:46:06;100406.28;;;3.33;80.24
68994;BME280;56054;50.968;5.816;2023-03-11T20:49:14;100400.50;;;3.26;81.14
68994;BME280;56054;50.968;5.816;2023-03-11T20:52:21;100405.00;;;3.28;80.46
68994;BME280;56054;50.968;5.816;2023-03-11T20:55:28;100391.44;;;3.39;82.05
68994;BME280;56054;50.968;5.816;2023-03-11T20:58:41;100393.56;;;3.25;80.96
68994;BME280;56054;50.968;5.816;2023-03-11T21:01:49;100402.19;;;3.25;82.73
68994;BME280;56054;50.968;5.816;2023-03-11T21:05:01;100397.13;;;3.16;81.40
68994;BME280;56054;50.968;5.816;2023-03-11T21:08:09;100397.25;;;3.08;81.51
68994;BME280;56054;50.968;5.816;2023-03-11T21:11:16;100394.06;;;3.20;81.35
68994;BME280;56054;50.968;5.816;2023-03-11T21:14:23;100397.41;;;3.19;82.34
68994;BME280;56054;50.968;5.816;2023-03-11T21:17:30;100400.53;;;2.96;79.63
68994;BME280;56054;50.968;5.816;2023-03-11T21:20:38;100391.34;;;3.09;80.54
68994;BME280;56054;50.968;5.816;2023-03-11T21:23:46;100377.91;;;2.92;80.49
68994;BME280;56054;50.968;5.816;2023-03-11T21:26:53;100382.81;;;2.99;81.39
68994;BME280;56054;50.968;5.816;2023-03-11T21:30:00;100372.56;;;2.99;81.41
68994;BME280;56054;50.968;5.816;2023-03-11T21:33:07;100368.94;;;2.97;82.52
68994;BME280;56054;50.968;5.816;2023-03-11T21:36:15;100381.66;;;2.96;81.88
68994;BME280;56054;50.968;5.816;2023-03-11T21:39:23;100364.97;;;2.91;80.81
68994;BME280;56054;50.968;5.816;2023-03-11T21:42:30;100364.75;;;2.98;81.77
68994;BME280;56054;50.968;5.816;2023-03-11T21:45:37;100376.56;;;3.06;83.76
68994;BME280;56054;50.968;5.816;2023-03-11T21:48:45;100385.06;;;3.05;82.82
68994;BME280;56054;50.968;5.816;2023-03-11T21:51:54;100379.28;;;3.08;83.41
68994;BME280;56054;50.968;5.816;2023-03-11T21:55:02;100382.59;;;3.07;84.29
68994;BME280;56054;50.968;5.816;2023-03-11T21:58:10;100381.31;;;3.12;86.21
68994;BME280;56054;50.968;5.816;2023-03-11T22:01:17;100382.59;;;3.07;83.08
68994;BME280;56054;50.968;5.816;2023-03-11T22:04:25;100382.59;;;3.07;83.45
68994;BME280;56054;50.968;5.816;2023-03-11T22:07:59;100375.84;;;3.17;84.66
68994;BME280;56054;50.968;5.816;2023-03-11T22:11:08;100384.63;;;3.00;81.16
68994;BME280;56054;50.968;5.816;2023-03-11T22:14:16;100382.47;;;3.05;82.79
68994;BME280;56054;50.968;5.816;2023-03-11T22:17:25;100376.13;;;2.91;81.46
68994;BME280;56054;50.968;5.816;2023-03-11T22:20:32;100380.81;;;3.06;84.55
68994;BME280;56054;50.968;5.816;2023-03-11T22:23:41;100380.25;;;2.99;82.15
68994;BME280;56054;50.968;5.816;2023-03-11T22:26:48;100374.34;;;2.90;81.66
68994;BME280;56054;50.968;5.816;2023-03-11T22:29:55;100376.13;;;2.91;82.71
68994;BME280;56054;50.968;5.816;2023-03-11T22:33:02;100371.25;;;2.94;83.35
68994;BME280;56054;50.968;5.816;2023-03-11T22:36:10;100368.44;;;2.91;82.35
68994;BME280;56054;50.968;5.816;2023-03-11T22:39:17;100368.22;;;2.98;82.90
68994;BME280;56054;50.968;5.816;2023-03-11T22:42:25;100358.41;;;2.84;81.38
68994;BME280;56054;50.968;5.816;2023-03-11T22:45:32;100369.16;;;2.80;81.88
68994;BME280;56054;50.968;5.816;2023-03-11T22:48:40;100369.94;;;2.79;81.84
68994;BME280;56054;50.968;5.816;2023-03-11T22:51:47;100364.34;;;2.93;83.92
68994;BME280;56054;50.968;5.816;2023-03-11T22:54:55;100368.66;;;2.84;82.34
68994;BME280;56054;50.968;5.816;2023-03-11T22:58:02;100369.44;;;2.83;82.57
68994;BME280;56054;50.968;5.816;2023-03-11T23:01:11;100365.38;;;2.95;82.71
68994;BME280;56054;50.968;5.816;2023-03-11T23:04:18;100370.38;;;2.94;83.31
68994;BME280;56054;50.968;5.816;2023-03-11T23:07:25;100366.69;;;3.00;83.65
68994;BME280;56054;50.968;5.816;2023-03-11T23:17:15;100371.72;;;2.80;82.71
68994;BME280;56054;50.968;5.816;2023-03-11T23:20:25;100358.88;;;2.80;82.08
68994;BME280;56054;50.968;5.816;2023-03-11T23:27:53;100355.81;;;2.74;83.23
68994;BME280;56054;50.968;5.816;2023-03-11T23:44:08;100350.47;;;2.91;85.90
68994;BME280;56054;50.968;5.816;2023-03-11T23:47:16;100343.56;;;2.90;85.10
68994;BME280;56054;50.968;5.816;2023-03-11T23:50:25;100348.13;;;2.84;84.90
